createdAt,value
2019-05-07T00:00:34.599Z,96.80
2019-05-07T00:03:05.064Z,97.00
2019-05-07T00:05:33.853Z,96.40
2019-05-07T00:08:03.151Z,96.70
2019-05-07T00:10:33.158Z,97.00
2019-05-07T00:13:02.529Z,96.80
2019-05-07T00:15:32.762Z,96.70
2019-05-07T00:18:03.239Z,96.00
2019-05-07T00:20:32.816Z,96.10
2019-05-07T00:23:02.938Z,96.10
2019-05-07T00:25:32.899Z,96.30
2019-05-07T00:28:02.725Z,96.30
2019-05-07T00:30:33.169Z,96.40
2019-05-07T00:33:02.879Z,96.40
2019-05-07T00:35:33.433Z,96.30
2019-05-07T00:38:06.783Z,96.40
2019-05-07T00:40:43.434Z,96.60
2019-05-07T00:43:13.827Z,96.60
2019-05-07T00:45:47.259Z,96.60
2019-05-07T00:48:15.989Z,96.80
2019-05-07T00:50:46.361Z,97.40
2019-05-07T00:53:15.358Z,97.50
2019-05-07T00:55:44.130Z,97.50
2019-05-07T00:58:13.328Z,97.30
2019-05-07T01:00:42.438Z,96.80
2019-05-07T01:03:12.957Z,96.90
2019-05-07T01:05:43.253Z,97.40
2019-05-07T01:08:13.235Z,97.40
2019-05-07T01:10:42.301Z,97.00
2019-05-07T01:13:12.563Z,97.10
2019-05-07T01:15:42.941Z,97.40
2019-05-07T01:18:32.429Z,97.10
2019-05-07T01:21:02.400Z,97.70
2019-05-07T01:23:32.211Z,97.50
2019-05-07T01:26:03.046Z,97.90
2019-05-07T01:28:33.561Z,97.60
2019-05-07T01:31:02.373Z,97.50
2019-05-07T01:33:33.288Z,97.60
2019-05-07T01:36:06.864Z,97.20
2019-05-07T01:38:35.661Z,97.40
2019-05-07T01:41:04.486Z,97.50
2019-05-07T01:43:33.645Z,97.70
2019-05-07T01:46:03.183Z,97.60
2019-05-07T01:48:32.451Z,98.10
2019-05-07T01:51:04.320Z,97.60
2019-05-07T01:53:33.235Z,97.40
2019-05-07T01:56:03.221Z,97.60
2019-05-07T01:58:33.222Z,97.40
2019-05-07T02:01:02.910Z,97.50
2019-05-07T02:03:41.914Z,96.90
2019-05-07T02:06:22.022Z,97.00
2019-05-07T02:08:53.112Z,96.80
2019-05-07T02:11:46.100Z,97.00
2019-05-07T02:14:14.893Z,97.40
2019-05-07T02:16:43.643Z,97.10
2019-05-07T02:19:12.766Z,97.10
2019-05-07T02:21:42.391Z,97.10
2019-05-07T02:24:12.626Z,96.90
2019-05-07T02:26:42.752Z,97.50
2019-05-07T02:29:12.219Z,97.40
2019-05-07T02:31:44.264Z,97.60
2019-05-07T02:34:14.112Z,97.30
2019-05-07T02:36:43.614Z,97.10
2019-05-07T02:39:20.112Z,97.10
2019-05-07T02:41:48.982Z,97.40
2019-05-07T02:44:17.798Z,98.10
2019-05-07T02:46:53.911Z,98.00
2019-05-07T02:49:24.284Z,98.00
2019-05-07T02:51:54.650Z,97.90
2019-05-07T02:54:27.815Z,97.80
2019-05-07T02:56:56.559Z,98.00
2019-05-07T02:59:25.292Z,97.90
2019-05-07T03:01:54.154Z,97.90
2019-05-07T03:04:25.006Z,98.00
2019-05-07T03:06:54.284Z,97.80
2019-05-07T03:09:23.621Z,97.90
2019-05-07T03:11:52.890Z,98.20
2019-05-07T03:14:23.432Z,97.70
2019-05-07T03:17:13.276Z,98.10
2019-05-07T03:19:46.801Z,97.90
2019-05-07T03:22:15.623Z,97.80
2019-05-07T03:24:48.778Z,97.80
2019-05-07T03:27:17.645Z,97.80
2019-05-07T03:29:47.998Z,97.60
2019-05-07T03:32:36.754Z,97.70
2019-05-07T03:35:06.673Z,97.60
2019-05-07T03:37:36.461Z,97.50
2019-05-07T03:40:05.995Z,97.70
2019-05-07T03:42:34.867Z,97.60
2019-05-07T03:45:06.071Z,97.90
2019-05-07T03:47:36.491Z,98.30
2019-05-07T03:50:08.607Z,98.40
2019-05-07T03:52:37.684Z,98.50
2019-05-07T03:55:08.833Z,98.10
2019-05-07T03:57:37.617Z,98.00
2019-05-07T04:00:08.633Z,97.70
2019-05-07T04:02:38.036Z,97.80
2019-05-07T04:05:07.552Z,97.60
2019-05-07T04:07:36.379Z,97.70
2019-05-07T04:10:10.299Z,97.90
2019-05-07T04:12:39.068Z,97.80
2019-05-07T04:15:08.184Z,97.70
2019-05-07T04:17:37.036Z,98.00
2019-05-07T04:20:08.236Z,97.90
2019-05-07T04:22:37.342Z,97.80
2019-05-07T04:25:09.621Z,98.00
2019-05-07T04:27:56.040Z,98.00
2019-05-07T04:30:25.350Z,98.10
2019-05-07T04:32:55.716Z,98.10
2019-05-07T04:35:29.064Z,98.20
2019-05-07T04:38:01.823Z,98.20
2019-05-07T04:40:28.325Z,98.20
2019-05-07T04:42:57.322Z,98.20
2019-05-07T04:45:26.197Z,97.90
2019-05-07T04:47:54.978Z,98.60
2019-05-07T04:50:43.057Z,98.80
2019-05-07T04:53:05.734Z,98.40
2019-05-07T04:55:34.947Z,98.50
2019-05-07T04:58:08.703Z,98.50
2019-05-07T05:00:34.176Z,98.50
2019-05-07T05:03:04.605Z,98.50
2019-05-07T05:05:33.368Z,98.50
2019-05-07T05:08:05.271Z,98.40
2019-05-07T05:10:34.060Z,98.40
2019-05-07T05:13:03.375Z,98.50
2019-05-07T05:15:32.276Z,98.50
2019-05-07T05:18:02.629Z,98.50
2019-05-07T05:20:42.376Z,98.00
2019-05-07T05:23:18.469Z,98.00
2019-05-07T05:25:47.240Z,98.10
2019-05-07T05:28:16.403Z,98.00
2019-05-07T05:30:52.874Z,97.80
2019-05-07T05:33:23.684Z,97.80
2019-05-07T05:35:52.709Z,97.70
2019-05-07T05:38:24.371Z,97.90
2019-05-07T05:40:53.216Z,97.70
2019-05-07T05:43:31.791Z,97.50
2019-05-07T05:46:02.711Z,97.50
2019-05-07T05:48:33.406Z,97.40
2019-05-07T05:51:06.293Z,97.40
2019-05-07T05:53:43.377Z,97.30
2019-05-07T05:56:18.918Z,97.80
2019-05-07T05:58:52.820Z,96.90
2019-05-07T06:01:32.163Z,97.00
2019-05-07T06:04:05.713Z,96.60
2019-05-07T06:06:42.423Z,96.60
2019-05-07T06:09:29.441Z,96.50
2019-05-07T06:12:16.006Z,96.20
2019-05-07T06:14:58.484Z,95.80
2019-05-07T06:17:35.488Z,95.80
2019-05-07T06:20:25.507Z,95.90
2019-05-07T06:23:13.846Z,95.60
2019-05-07T06:25:44.223Z,95.60
2019-05-07T06:28:13.070Z,95.90
2019-05-07T06:30:42.001Z,95.50
2019-05-07T06:33:12.918Z,95.30
2019-05-07T06:35:42.888Z,95.20
2019-05-07T06:38:12.975Z,95.50
2019-05-07T06:40:59.617Z,95.50
2019-05-07T06:43:32.512Z,95.20
2019-05-07T06:46:02.930Z,95.70
2019-05-07T06:48:42.353Z,95.20
2019-05-07T06:51:03.092Z,95.50
2019-05-07T06:53:33.568Z,94.80
2019-05-07T06:56:03.627Z,95.30
2019-05-07T06:58:36.951Z,94.50
2019-05-07T07:01:25.394Z,94.60
2019-05-07T07:03:55.815Z,94.70
2019-05-07T07:06:27.426Z,94.40
2019-05-07T07:09:03.957Z,94.50
2019-05-07T07:11:34.342Z,94.40
2019-05-07T07:14:03.121Z,94.60
2019-05-07T07:16:32.564Z,94.40
2019-05-07T07:19:03.329Z,94.40
2019-05-07T07:21:32.665Z,94.60
2019-05-07T07:24:02.999Z,94.60
2019-05-07T07:26:33.762Z,94.60
2019-05-07T07:29:07.024Z,94.50
2019-05-07T07:31:37.394Z,94.10
2019-05-07T07:34:06.208Z,94.00
2019-05-07T07:36:36.624Z,94.30
2019-05-07T07:39:08.219Z,94.40
2019-05-07T07:41:38.584Z,94.00
2019-05-07T07:44:07.482Z,94.10
2019-05-07T07:46:36.265Z,93.90
2019-05-07T07:49:11.100Z,93.80
2019-05-07T07:51:41.452Z,93.60
2019-05-07T07:54:05.935Z,93.70
2019-05-07T07:56:55.740Z,93.70
2019-05-07T07:59:41.978Z,94.20
2019-05-07T08:02:12.455Z,93.60
2019-05-07T08:04:42.636Z,93.60
2019-05-07T08:07:12.455Z,92.80
2019-05-07T08:09:42.730Z,93.50
2019-05-07T08:12:12.717Z,93.20
2019-05-07T08:14:42.722Z,91.90
2019-05-07T08:17:13.039Z,91.80
2019-05-07T08:19:42.875Z,92.00
2019-05-07T08:22:12.261Z,92.90
2019-05-07T08:24:42.568Z,92.10
2019-05-07T08:27:14.772Z,93.10
2019-05-07T08:29:42.951Z,92.40
2019-05-07T08:32:13.671Z,92.50
2019-05-07T08:34:44.050Z,92.70
2019-05-07T08:37:12.915Z,92.80
2019-05-07T08:39:42.906Z,92.20
2019-05-07T08:42:12.373Z,92.60
2019-05-07T08:44:55.150Z,91.30
2019-05-07T08:47:31.913Z,91.40
2019-05-07T08:50:02.871Z,91.40
2019-05-07T08:52:32.728Z,91.30
2019-05-07T08:55:02.137Z,90.90
2019-05-07T08:57:31.861Z,90.70
2019-05-07T09:00:02.252Z,90.50
2019-05-07T09:02:32.632Z,90.70
2019-05-07T09:05:02.906Z,91.50
2019-05-07T09:07:32.314Z,91.60
2019-05-07T09:10:02.530Z,92.40
2019-05-07T09:12:32.652Z,91.60
2019-05-07T09:15:04.070Z,90.90
2019-05-07T09:17:32.940Z,91.10
2019-05-07T09:20:02.711Z,91.10
2019-05-07T09:22:32.366Z,90.90
2019-05-07T09:25:03.084Z,86.80
2019-05-07T09:27:33.379Z,85.40
2019-05-07T09:30:12.784Z,89.30
2019-05-07T09:32:49.365Z,84.10
2019-05-07T09:35:21.567Z,89.50
2019-05-07T09:37:50.305Z,90.90
2019-05-07T09:40:21.629Z,91.20
2019-05-07T09:42:52.395Z,90.90
2019-05-07T09:45:22.516Z,91.40
2019-05-07T09:47:52.259Z,91.10
2019-05-07T09:50:22.083Z,90.70
2019-05-07T09:52:51.802Z,90.30
2019-05-07T09:55:23.166Z,90.20
2019-05-07T09:57:52.777Z,90.90
2019-05-07T10:00:25.002Z,89.70
2019-05-07T10:02:56.614Z,88.90
2019-05-07T10:05:24.217Z,87.70
2019-05-07T10:07:55.311Z,89.10
2019-05-07T10:10:24.115Z,89.70
2019-05-07T10:12:57.258Z,90.20
2019-05-07T10:15:26.051Z,89.60
2019-05-07T10:18:01.716Z,90.60
2019-05-07T10:20:32.550Z,90.90
2019-05-07T10:23:02.421Z,90.80
2019-05-07T10:25:39.994Z,90.00
2019-05-07T10:28:09.207Z,90.10
2019-05-07T10:30:38.011Z,89.90
2019-05-07T10:33:06.808Z,89.50
2019-05-07T10:35:37.121Z,89.30
2019-05-07T10:38:06.018Z,88.50
2019-05-07T10:40:34.946Z,88.50
2019-05-07T10:43:03.752Z,90.40
2019-05-07T10:45:42.965Z,90.30
2019-05-07T10:48:13.372Z,88.60
2019-05-07T10:50:51.609Z,89.00
2019-05-07T10:53:19.924Z,86.60
2019-05-07T10:55:48.734Z,87.90
2019-05-07T10:58:17.535Z,88.60
2019-05-07T11:00:47.098Z,87.90
2019-05-07T11:03:15.826Z,88.70
2019-05-07T11:05:44.644Z,86.20
2019-05-07T11:08:13.482Z,87.10
2019-05-07T11:10:43.723Z,88.70
2019-05-07T11:13:13.013Z,86.20
2019-05-07T11:15:43.450Z,86.30
2019-05-07T11:18:17.133Z,87.40
2019-05-07T11:20:50.055Z,87.00
2019-05-07T11:23:16.372Z,87.10
2019-05-07T11:25:45.193Z,86.60
2019-05-07T11:28:14.048Z,86.10
2019-05-07T11:30:43.622Z,88.80
2019-05-07T11:33:12.967Z,89.60
2019-05-07T11:35:42.551Z,89.10
2019-05-07T11:38:21.081Z,90.20
2019-05-07T11:40:42.666Z,91.20
2019-05-07T11:43:16.466Z,91.20
2019-05-07T11:45:49.867Z,92.30
2019-05-07T11:48:21.992Z,92.20
2019-05-07T11:51:04.127Z,92.40
2019-05-07T11:53:33.307Z,92.50
2019-05-07T11:56:02.546Z,92.80
2019-05-07T11:58:32.736Z,93.10
2019-05-07T12:01:07.130Z,93.30
2019-05-07T12:03:35.959Z,93.90
2019-05-07T12:06:04.828Z,93.70
2019-05-07T12:08:42.956Z,94.00
2019-05-07T12:11:04.247Z,94.50
2019-05-07T12:13:33.114Z,94.60
2019-05-07T12:16:02.936Z,94.30
2019-05-07T12:18:32.228Z,94.60
2019-05-07T12:21:03.793Z,94.70
2019-05-07T12:23:33.199Z,95.30
2019-05-07T12:26:02.475Z,94.00
2019-05-07T12:28:32.804Z,93.90
2019-05-07T12:31:06.541Z,94.90
2019-05-07T12:33:36.923Z,94.60
2019-05-07T12:36:12.424Z,93.50
2019-05-07T12:38:41.694Z,92.60
2019-05-07T12:41:33.188Z,93.10
2019-05-07T12:44:22.213Z,93.00
2019-05-07T12:46:52.456Z,92.20
2019-05-07T12:49:22.105Z,91.60
2019-05-07T12:51:52.981Z,92.60
2019-05-07T12:54:29.624Z,92.60
2019-05-07T12:56:58.426Z,92.10
2019-05-07T12:59:28.177Z,91.40
2019-05-07T13:02:16.694Z,90.90
2019-05-07T13:04:36.365Z,90.90
2019-05-07T13:07:09.316Z,90.00
2019-05-07T13:09:38.174Z,90.20
2019-05-07T13:12:06.997Z,91.00
2019-05-07T13:14:35.817Z,90.90
2019-05-07T13:17:04.657Z,90.80
2019-05-07T13:19:33.476Z,91.10
2019-05-07T13:22:02.439Z,91.40
2019-05-07T13:24:32.088Z,91.70
2019-05-07T13:27:03.139Z,92.00
2019-05-07T13:29:32.596Z,92.60
2019-05-07T13:32:04.509Z,92.50
2019-05-07T13:34:34.100Z,92.10
2019-05-07T13:37:07.558Z,91.40
2019-05-07T13:39:38.385Z,91.40
2019-05-07T13:42:08.812Z,90.90
2019-05-07T13:44:39.206Z,91.20
2019-05-07T13:47:26.136Z,91.60
2019-05-07T13:49:55.980Z,91.20
2019-05-07T13:52:25.411Z,89.10
2019-05-07T13:54:54.919Z,90.60
2019-05-07T13:57:23.697Z,90.10
2019-05-07T13:59:53.416Z,89.50
2019-05-07T14:02:25.563Z,88.90
2019-05-07T14:04:54.395Z,87.20
2019-05-07T14:07:26.217Z,88.50
2019-05-07T14:09:57.282Z,89.50
2019-05-07T14:12:27.679Z,88.80
2019-05-07T14:14:56.588Z,87.90
2019-05-07T14:17:25.567Z,88.30
2019-05-07T14:19:54.396Z,88.50
2019-05-07T14:22:23.118Z,87.20
2019-05-07T14:24:53.070Z,86.90
2019-05-07T14:27:22.653Z,88.90
2019-05-07T14:29:52.091Z,87.10
2019-05-07T14:32:23.170Z,87.10
2019-05-07T14:34:59.317Z,86.70
2019-05-07T14:37:32.602Z,87.30
2019-05-07T14:40:02.716Z,87.40
2019-05-07T14:42:33.233Z,84.90
2019-05-07T14:45:02.021Z,82.80
2019-05-07T14:47:30.910Z,81.70
2019-05-07T14:50:01.911Z,82.30
2019-05-07T14:52:33.102Z,79.80
2019-05-07T14:55:00.536Z,80.70
2019-05-07T14:57:29.335Z,80.10
2019-05-07T14:59:58.219Z,81.30
2019-05-07T15:02:28.128Z,82.30
2019-05-07T15:04:57.107Z,79.60
2019-05-07T15:07:25.982Z,78.90
2019-05-07T15:09:54.818Z,79.10
2019-05-07T15:12:23.952Z,80.20
2019-05-07T15:14:52.910Z,79.70
2019-05-07T15:17:25.109Z,80.20
2019-05-07T15:19:53.943Z,80.40
2019-05-07T15:22:45.476Z,80.20
2019-05-07T15:25:02.767Z,79.70
2019-05-07T15:27:32.274Z,81.90
2019-05-07T15:30:02.335Z,83.10
2019-05-07T15:32:32.348Z,81.70
2019-05-07T15:35:02.190Z,83.50
2019-05-07T15:37:32.238Z,83.70
2019-05-07T15:40:02.496Z,82.10
2019-05-07T15:42:33.171Z,81.70
2019-05-07T15:45:02.404Z,82.50
2019-05-07T15:47:32.965Z,83.90
2019-05-07T15:50:01.817Z,86.00
2019-05-07T15:52:41.259Z,86.60
2019-05-07T15:55:11.907Z,85.30
2019-05-07T15:57:42.805Z,86.40
2019-05-07T16:00:23.523Z,87.00
2019-05-07T16:02:54.182Z,87.70
2019-05-07T16:05:22.939Z,88.60
2019-05-07T16:07:52.871Z,86.50
2019-05-07T16:10:23.459Z,85.70
2019-05-07T16:12:53.276Z,84.60
2019-05-07T16:15:22.512Z,83.80
2019-05-07T16:18:04.872Z,83.20
2019-05-07T16:20:33.721Z,84.90
2019-05-07T16:23:14.315Z,84.20
2019-05-07T16:25:33.477Z,84.90
2019-05-07T16:28:04.952Z,83.70
2019-05-07T16:30:32.756Z,85.50
2019-05-07T16:33:02.199Z,85.90
2019-05-07T16:35:32.901Z,86.30
2019-05-07T16:38:01.701Z,87.80
2019-05-07T16:40:32.296Z,87.40
2019-05-07T16:43:02.806Z,85.90
2019-05-07T16:45:31.701Z,85.20
2019-05-07T16:48:02.972Z,85.30
2019-05-07T16:50:32.661Z,85.90
2019-05-07T16:53:02.835Z,87.60
2019-05-07T16:55:36.741Z,89.00
2019-05-07T16:58:23.455Z,88.60
2019-05-07T17:00:54.073Z,88.20
2019-05-07T17:03:24.677Z,88.70
2019-05-07T17:05:53.681Z,89.30
2019-05-07T17:08:24.106Z,90.00
2019-05-07T17:10:52.937Z,89.70
2019-05-07T17:13:23.671Z,90.00
2019-05-07T17:15:56.614Z,90.00
2019-05-07T17:18:26.442Z,90.10
2019-05-07T17:20:56.467Z,88.30
2019-05-07T17:23:39.799Z,87.20
2019-05-07T17:26:01.659Z,90.20
2019-05-07T17:28:31.922Z,90.50
2019-05-07T17:31:02.927Z,90.40
2019-05-07T17:33:32.083Z,90.60
2019-05-07T17:36:02.497Z,90.60
2019-05-07T17:38:32.210Z,90.70
2019-05-07T17:41:13.660Z,89.30
2019-05-07T17:43:34.473Z,89.80
2019-05-07T17:46:03.329Z,90.10
2019-05-07T17:48:33.968Z,89.00
2019-05-07T17:51:07.501Z,87.20
2019-05-07T17:53:36.519Z,89.10
2019-05-07T17:56:06.392Z,90.10
2019-05-07T17:58:35.892Z,90.10
2019-05-07T18:01:08.077Z,90.50
2019-05-07T18:03:39.557Z,90.70
2019-05-07T18:06:12.353Z,90.50
2019-05-07T18:08:44.114Z,90.70
2019-05-07T18:11:21.367Z,90.40
2019-05-07T18:13:46.231Z,89.70
2019-05-07T18:16:33.305Z,90.50
2019-05-07T18:19:03.019Z,90.00
2019-05-07T18:21:32.655Z,90.20
2019-05-07T18:24:13.832Z,88.10
2019-05-07T18:26:42.167Z,87.70
2019-05-07T18:29:11.932Z,88.40
2019-05-07T18:31:45.813Z,88.40
2019-05-07T18:34:18.755Z,88.20
2019-05-07T18:36:47.825Z,86.80
2019-05-07T18:39:16.805Z,87.20
2019-05-07T18:41:46.367Z,87.60
2019-05-07T18:44:16.280Z,89.60
2019-05-07T18:46:49.905Z,88.60
2019-05-07T18:49:21.944Z,89.80
2019-05-07T18:52:04.567Z,89.10
2019-05-07T18:54:35.711Z,88.10
2019-05-07T18:57:05.262Z,88.50
2019-05-07T18:59:36.323Z,88.60
2019-05-07T19:02:06.175Z,89.40
2019-05-07T19:04:35.455Z,89.50
2019-05-07T19:07:06.361Z,89.80
2019-05-07T19:09:36.021Z,89.60
2019-05-07T19:12:06.896Z,89.90
2019-05-07T19:14:38.705Z,89.40
2019-05-07T19:17:08.521Z,89.60
2019-05-07T19:19:44.329Z,90.00
2019-05-07T19:22:08.751Z,90.40
2019-05-07T19:24:47.679Z,90.90
2019-05-07T19:27:16.930Z,91.10
2019-05-07T19:29:46.681Z,91.40
2019-05-07T19:32:19.781Z,91.80
2019-05-07T19:34:49.661Z,91.50
2019-05-07T19:37:19.326Z,91.00
2019-05-07T19:39:52.226Z,91.10
2019-05-07T19:42:22.700Z,91.00
2019-05-07T19:44:52.350Z,91.30
2019-05-07T19:47:23.293Z,90.80
2019-05-07T19:49:55.535Z,91.30
2019-05-07T19:52:29.150Z,91.30
2019-05-07T19:55:01.618Z,91.60
2019-05-07T19:57:33.226Z,91.90
2019-05-07T20:00:03.076Z,91.80
2019-05-07T20:02:37.807Z,91.70
2019-05-07T20:05:12.001Z,91.70
2019-05-07T20:07:43.415Z,91.90
2019-05-07T20:10:14.702Z,92.00
2019-05-07T20:12:44.736Z,92.30
2019-05-07T20:15:19.053Z,92.20
2019-05-07T20:17:52.445Z,92.30
2019-05-07T20:20:22.167Z,92.20
2019-05-07T20:22:57.385Z,92.30
2019-05-07T20:25:28.905Z,92.70
2019-05-07T20:27:58.069Z,92.70
2019-05-07T20:30:27.593Z,92.20
2019-05-07T20:32:57.437Z,92.40
2019-05-07T20:35:27.104Z,92.60
2019-05-07T20:37:56.800Z,92.20
2019-05-07T20:40:26.766Z,92.20
2019-05-07T20:43:01.887Z,92.70
2019-05-07T20:45:28.734Z,92.10
2019-05-07T20:47:58.580Z,92.50
2019-05-07T20:50:33.362Z,93.70
2019-05-07T20:53:03.278Z,94.50
2019-05-07T20:55:34.311Z,95.30
2019-05-07T20:58:08.499Z,96.10
2019-05-07T21:00:38.487Z,95.40
2019-05-07T21:03:19.909Z,96.00
2019-05-07T21:05:57.549Z,96.20
2019-05-07T21:08:27.321Z,96.30
2019-05-07T21:10:58.285Z,96.40
2019-05-07T21:13:31.783Z,96.30
2019-05-07T21:15:59.248Z,96.20
2019-05-07T21:18:29.147Z,96.10
2019-05-07T21:20:58.839Z,96.70
2019-05-07T21:23:28.276Z,96.60
2019-05-07T21:25:57.666Z,96.50
2019-05-07T21:28:27.239Z,96.40
2019-05-07T21:30:57.216Z,96.70
2019-05-07T21:33:32.036Z,97.00
2019-05-07T21:35:58.978Z,96.60
2019-05-07T21:38:29.522Z,96.50
2019-05-07T21:41:00.814Z,96.20
2019-05-07T21:43:32.700Z,96.70
2019-05-07T21:46:02.510Z,97.00
2019-05-07T21:48:32.866Z,97.20
2019-05-07T21:51:12.368Z,97.30
2019-05-07T21:53:39.845Z,97.30
2019-05-07T21:56:12.357Z,97.40
2019-05-07T21:58:53.864Z,97.20
2019-05-07T22:01:32.738Z,97.50
2019-05-07T22:04:02.860Z,97.40
2019-05-07T22:06:32.499Z,97.00
2019-05-07T22:09:03.393Z,97.30
2019-05-07T22:11:33.035Z,96.80
2019-05-07T22:14:02.360Z,97.00
2019-05-07T22:16:36.611Z,97.30
2019-05-07T22:19:06.770Z,96.80
2019-05-07T22:21:36.759Z,97.10
2019-05-07T22:24:10.397Z,97.00
2019-05-07T22:26:42.196Z,97.20
2019-05-07T22:29:14.435Z,97.40
2019-05-07T22:32:03.328Z,97.40
2019-05-07T22:34:43.243Z,97.50
2019-05-07T22:37:12.943Z,97.40
2019-05-07T22:39:42.437Z,97.50
2019-05-07T22:42:12.120Z,97.60
2019-05-07T22:44:46.962Z,97.80
2019-05-07T22:47:17.053Z,98.00
2019-05-07T22:49:47.785Z,98.10
2019-05-07T22:52:18.743Z,98.20
2019-05-07T22:54:48.247Z,98.30
2019-05-07T22:57:22.690Z,98.00
2019-05-07T22:59:53.694Z,97.90
2019-05-07T23:02:23.746Z,98.00
2019-05-07T23:04:53.390Z,97.80
2019-05-07T23:07:24.072Z,97.70
2019-05-07T23:09:53.701Z,97.70
2019-05-07T23:12:28.214Z,97.90
2019-05-07T23:14:57.782Z,98.00
2019-05-07T23:17:28.701Z,97.90
2019-05-07T23:19:58.260Z,97.80
2019-05-07T23:22:27.754Z,97.70
2019-05-07T23:24:58.298Z,97.70
2019-05-07T23:27:29.328Z,97.90
2019-05-07T23:30:02.486Z,97.90
2019-05-07T23:32:32.897Z,97.50
2019-05-07T23:35:02.847Z,96.90
2019-05-07T23:37:33.253Z,96.50
2019-05-07T23:40:07.612Z,95.80
2019-05-07T23:42:44.242Z,95.90
2019-05-07T23:45:13.761Z,95.60
2019-05-07T23:47:44.685Z,95.40
2019-05-07T23:50:14.540Z,95.40
2019-05-07T23:52:44.218Z,95.00
2019-05-07T23:55:14.165Z,95.00
2019-05-07T23:57:43.148Z,95.00
